Time;durP1;ratioP1;P1;durP2;ratioP2;P2;SDS_P1;SDS_P2;PMS_P1;PMS_P2;Temp;Humidity;BMP_temperature;BMP_pressure;BME280_temperature;BME280_humidity;BME280_pressure;Samples;Min_cycle;Max_cycle;Signal;HPM_P1;HPM_P2
2023/12/12 00:01:34;;;;;;;15.13;5.72;;;;;;;6.67;100.00;100749.81;5065303;28;20028;-80
2023/12/12 00:03:59;;;;;;;17.45;6.18;;;;;;;6.66;100.00;100753.38;5064879;28;20026;-80
2023/12/12 00:06:24;;;;;;;15.15;5.72;;;;;;;6.65;100.00;100751.69;5063333;28;20024;-80
2023/12/12 00:08:50;;;;;;;19.20;6.50;;;;;;;6.65;100.00;100751.69;5066988;28;20473;-80
2023/12/12 00:11:18;;;;;;;16.60;6.35;;;;;;;6.68;100.00;100751.50;5051232;28;20064;-80
2023/12/12 00:13:44;;;;;;;15.55;7.03;;;;;;;6.67;100.00;100759.44;5048183;28;20505;-80
2023/12/12 00:16:09;;;;;;;22.90;6.78;;;;;;;6.66;100.00;100755.97;5062741;28;20064;-80
2023/12/12 00:18:35;;;;;;;17.63;6.43;;;;;;;6.65;100.00;100756.91;5066405;28;20374;-80
2023/12/12 00:21:02;;;;;;;21.92;6.63;;;;;;;6.64;100.00;100755.22;5066606;28;20035;-80
2023/12/12 00:23:27;;;;;;;26.33;7.03;;;;;;;6.62;100.00;100745.78;5066751;28;20031;-80
2023/12/12 00:25:53;;;;;;;21.25;6.85;;;;;;;6.58;100.00;100752.97;5058870;28;20029;-80
2023/12/12 00:28:18;;;;;;;22.98;6.70;;;;;;;6.56;100.00;100747.84;5049429;28;20078;-81
2023/12/12 00:30:44;;;;;;;21.10;6.90;;;;;;;6.53;100.00;100747.19;5067864;28;20090;-80
2023/12/12 00:33:09;;;;;;;18.30;6.28;;;;;;;6.51;100.00;100749.03;5057804;28;20033;-80
2023/12/12 00:35:34;;;;;;;19.52;6.68;;;;;;;6.47;100.00;100758.00;5054264;28;20454;-80
2023/12/12 00:38:00;;;;;;;20.00;6.68;;;;;;;6.43;100.00;100756.50;5066054;28;20103;-79
2023/12/12 00:40:25;;;;;;;20.75;6.80;;;;;;;6.38;100.00;100754.13;5066819;28;20058;-79
2023/12/12 00:42:51;;;;;;;17.27;6.68;;;;;;;6.37;100.00;100747.22;5057105;28;20025;-80
2023/12/12 00:45:17;;;;;;;23.85;7.47;;;;;;;6.36;100.00;100745.53;5050949;28;20478;-80
2023/12/12 00:47:42;;;;;;;22.98;7.00;;;;;;;6.35;100.00;100743.00;5063978;28;20507;-80
2023/12/12 00:50:08;;;;;;;23.08;6.95;;;;;;;6.34;100.00;100750.00;5060566;28;20021;-80
2023/12/12 00:52:34;;;;;;;24.17;7.13;;;;;;;6.31;100.00;100739.75;5050334;28;20035;-80
2023/12/12 00:55:00;;;;;;;27.05;7.50;;;;;;;6.32;100.00;100748.41;5055644;28;20609;-80
2023/12/12 00:57:26;;;;;;;24.17;6.63;;;;;;;6.29;100.00;100750.28;5067328;28;20086;-80
2023/12/12 00:59:52;;;;;;;25.65;7.03;;;;;;;6.28;100.00;100742.53;5066972;28;20028;-79
2023/12/12 01:02:20;;;;;;;23.13;6.88;;;;;;;6.27;100.00;100741.69;5062814;28;20032;-81
2023/12/12 01:04:45;;;;;;;21.60;6.82;;;;;;;6.28;100.00;100732.09;5068778;28;20024;-80
2023/12/12 01:07:10;;;;;;;25.48;6.97;;;;;;;6.22;100.00;100743.72;5056215;28;20032;-80
2023/12/12 01:09:36;;;;;;;23.25;7.20;;;;;;;6.17;100.00;100740.53;5061288;28;20032;-79
2023/12/12 01:12:01;;;;;;;21.90;6.53;;;;;;;6.14;100.00;100735.50;5060029;28;20037;-80
2023/12/12 01:14:26;;;;;;;23.98;7.07;;;;;;;6.12;100.00;100739.13;5058260;28;20025;-80
2023/12/12 01:16:52;;;;;;;24.38;7.28;;;;;;;6.11;100.00;100740.91;5051582;28;20056;-80
2023/12/12 01:19:17;;;;;;;27.58;7.10;;;;;;;6.06;100.00;100735.09;5068548;28;20029;-80
2023/12/12 01:21:42;;;;;;;25.02;6.85;;;;;;;6.06;100.00;100731.66;5071192;28;20043;-80
2023/12/12 01:24:08;;;;;;;24.83;7.10;;;;;;;6.00;100.00;100730.19;5062123;28;20146;-80
2023/12/12 01:26:33;;;;;;;25.40;7.18;;;;;;;5.98;100.00;100724.22;5052497;28;20047;-80
2023/12/12 01:28:58;;;;;;;24.27;6.88;;;;;;;5.96;100.00;100719.09;5050274;28;20025;-79
2023/12/12 01:31:24;;;;;;;23.95;7.07;;;;;;;5.97;100.00;100722.53;5050124;28;20120;-80
2023/12/12 01:33:50;;;;;;;29.67;7.35;;;;;;;5.96;100.00;100726.09;5071090;28;20035;-80
2023/12/12 01:36:16;;;;;;;23.88;7.03;;;;;;;5.93;100.00;100715.81;5069554;28;20025;-80
2023/12/12 01:38:43;;;;;;;23.38;6.88;;;;;;;5.88;100.00;100712.59;5071592;28;20043;-79
2023/12/12 01:41:08;;;;;;;26.23;7.15;;;;;;;5.89;100.00;100714.28;5066583;28;20029;-79
2023/12/12 01:43:34;;;;;;;28.85;7.55;;;;;;;5.86;100.00;100717.06;5063872;28;20025;-79
2023/12/12 01:46:08;;;;;;;25.50;6.72;;;;;;;5.87;100.00;100714.38;5049675;28;20104;-79
2023/12/12 01:48:34;;;;;;;27.02;7.32;;;;;;;5.83;100.00;100719.84;5064821;28;20392;-79
2023/12/12 01:51:01;;;;;;;28.17;8.07;;;;;;;5.78;100.00;100717.50;5059049;28;20024;-79
2023/12/12 01:53:45;;;;;;;29.02;7.22;;;;;;;5.77;100.00;100722.81;5070882;28;20103;-79
2023/12/12 01:56:13;;;;;;;28.65;8.13;;;;;;;5.81;100.00;100713.88;5051678;28;20036;-79
2023/12/12 01:58:42;;;;;;;28.08;7.35;;;;;;;5.77;100.00;100725.41;5050570;28;20397;-79
2023/12/12 02:01:08;;;;;;;28.80;7.60;;;;;;;5.77;100.00;100713.22;5064267;28;20016;-80
2023/12/12 02:03:35;;;;;;;31.08;8.38;;;;;;;5.78;100.00;100714.03;5067767;28;20090;-80
2023/12/12 02:06:01;;;;;;;27.70;7.55;;;;;;;5.78;100.00;100716.66;5051151;28;20017;-79
2023/12/12 02:08:27;;;;;;;29.77;8.63;;;;;;;5.71;100.00;100716.16;5070724;28;20070;-79
2023/12/12 02:10:53;;;;;;;34.53;8.82;;;;;;;5.71;100.00;100720.53;5071594;28;20029;-79
2023/12/12 02:13:19;;;;;;;33.47;8.90;;;;;;;5.72;100.00;100722.22;5067714;28;20549;-79
2023/12/12 02:15:45;;;;;;;31.55;8.40;;;;;;;5.68;100.00;100718.09;5064126;28;20107;-79
2023/12/12 02:18:11;;;;;;;30.98;8.00;;;;;;;5.63;100.00;100708.78;5053084;28;20469;-79
2023/12/12 02:20:37;;;;;;;31.20;8.52;;;;;;;5.60;100.00;100708.94;5056086;28;20033;-80
2023/12/12 02:23:02;;;;;;;32.25;8.77;;;;;;;5.57;100.00;100708.25;5051028;28;20116;-80
2023/12/12 02:25:27;;;;;;;34.63;8.88;;;;;;;5.62;100.00;100708.84;5051315;28;20469;-80
2023/12/12 02:27:54;;;;;;;32.63;8.00;;;;;;;5.51;100.00;100696.38;5051392;28;20044;-80
2023/12/12 02:30:20;;;;;;;37.28;8.85;;;;;;;5.57;100.00;100700.41;5050878;28;20108;-80
2023/12/12 02:32:46;;;;;;;27.52;7.93;;;;;;;5.51;100.00;100703.38;5067173;28;20097;-80
2023/12/12 02:35:11;;;;;;;31.60;8.13;;;;;;;5.47;100.00;100701.84;5058340;28;20021;-80
2023/12/12 02:37:36;;;;;;;28.83;8.27;;;;;;;5.45;100.00;100694.09;5059406;28;20024;-80
2023/12/12 02:40:03;;;;;;;34.75;7.88;;;;;;;5.48;100.00;100693.94;5070147;28;20112;-80
2023/12/12 02:42:28;;;;;;;30.15;8.38;;;;;;;5.41;100.00;100687.38;5070375;28;20029;-80
2023/12/12 02:44:55;;;;;;;29.75;9.02;;;;;;;5.43;100.00;100700.34;5069545;28;20025;-80
2023/12/12 02:47:22;;;;;;;34.20;8.43;;;;;;;5.38;100.00;100692.78;5069842;28;20039;-80
2023/12/12 02:49:48;;;;;;;36.85;8.77;;;;;;;5.38;100.00;100695.38;5069497;28;20032;-80
2023/12/12 02:52:13;;;;;;;33.55;8.27;;;;;;;5.34;100.00;100696.47;5066811;28;20017;-80
2023/12/12 02:54:39;;;;;;;34.85;8.63;;;;;;;5.37;100.00;100698.06;5056430;28;20037;-80
2023/12/12 02:57:04;;;;;;;29.17;8.05;;;;;;;5.37;100.00;100693.69;5069240;28;20028;-80
2023/12/12 02:59:29;;;;;;;27.75;8.77;;;;;;;5.33;100.00;100693.03;5067382;28;20036;-80
2023/12/12 03:01:55;;;;;;;34.35;8.45;;;;;;;5.32;100.00;100693.94;5070650;28;20024;-80
2023/12/12 03:04:20;;;;;;;31.73;8.20;;;;;;;5.31;100.00;100687.06;5068892;28;20437;-80
2023/12/12 03:06:45;;;;;;;35.92;8.45;;;;;;;5.26;100.00;100683.00;5050228;28;20453;-80
2023/12/12 03:09:11;;;;;;;33.92;8.52;;;;;;;5.23;100.00;100686.63;5049854;28;20102;-80
2023/12/12 03:11:36;;;;;;;34.22;8.38;;;;;;;5.27;100.00;100684.69;5058320;28;20481;-80
2023/12/12 03:14:02;;;;;;;30.75;8.52;;;;;;;5.24;100.00;100684.88;5064399;28;20035;-80
2023/12/12 03:16:27;;;;;;;42.45;9.30;;;;;;;5.22;100.00;100678.91;5068540;28;20029;-80
2023/12/12 03:18:53;;;;;;;33.20;8.05;;;;;;;5.23;100.00;100672.75;5069705;28;20020;-80
2023/12/12 03:21:18;;;;;;;42.10;8.43;;;;;;;5.20;100.00;100668.53;5060599;28;20020;-80
2023/12/12 03:23:46;;;;;;;34.80;7.45;;;;;;;5.21;100.00;100670.22;5056129;28;20429;-80
2023/12/12 03:26:11;;;;;;;37.47;9.02;;;;;;;5.17;100.00;100662.63;5050348;28;20025;-80
2023/12/12 03:28:37;;;;;;;32.53;8.23;;;;;;;5.11;100.00;100665.56;5064319;28;20050;-80
2023/12/12 03:31:04;;;;;;;32.13;8.13;;;;;;;5.12;100.00;100660.28;5064363;28;20404;-80
2023/12/12 03:33:29;;;;;;;34.40;8.35;;;;;;;5.15;100.00;100664.47;5066433;28;20035;-80
2023/12/12 03:35:54;;;;;;;30.58;8.13;;;;;;;5.14;100.00;100660.19;5071076;28;20024;-80
2023/12/12 03:38:20;;;;;;;44.60;9.65;;;;;;;5.14;100.00;100662.78;5065200;28;20024;-80
2023/12/12 03:40:45;;;;;;;34.10;8.18;;;;;;;5.14;100.00;100663.63;5054170;28;20028;-79
2023/12/12 03:43:10;;;;;;;34.13;8.07;;;;;;;5.10;100.00;100656.06;5063354;28;20089;-79
2023/12/12 03:45:36;;;;;;;38.38;8.95;;;;;;;5.09;100.00;100655.22;5069335;28;20020;-80
2023/12/12 03:48:01;;;;;;;31.52;8.45;;;;;;;5.09;100.00;100643.94;5068434;28;20031;-80
2023/12/12 03:50:27;;;;;;;46.80;9.07;;;;;;;5.10;100.00;100637.81;5068119;28;20028;-80
2023/12/12 03:52:52;;;;;;;34.55;7.80;;;;;;;5.12;100.00;100638.56;5063711;28;20033;-80
2023/12/12 03:55:18;;;;;;;40.25;9.02;;;;;;;5.12;100.00;100623.75;5063996;28;20130;-80
2023/12/12 03:57:43;;;;;;;35.88;9.25;;;;;;;5.16;100.00;100619.22;5068968;28;20149;-80
2023/12/12 04:00:10;;;;;;;42.58;9.50;;;;;;;5.17;100.00;100618.28;5066348;28;20035;-80
2023/12/12 04:02:36;;;;;;;43.70;9.82;;;;;;;5.21;100.00;100622.44;5067366;28;20039;-80
2023/12/12 04:05:01;;;;;;;41.88;9.95;;;;;;;5.24;100.00;100624.88;5068903;28;20028;-80
2023/12/12 04:07:26;;;;;;;44.47;10.40;;;;;;;5.27;100.00;100622.09;5051942;28;20031;-79
2023/12/12 04:09:52;;;;;;;41.45;10.05;;;;;;;5.29;100.00;100615.03;5051807;28;20481;-79
2023/12/12 04:12:17;;;;;;;41.75;10.25;;;;;;;5.33;100.00;100613.94;5063593;28;20091;-79
2023/12/12 04:14:43;;;;;;;44.42;11.30;;;;;;;5.33;100.00;100600.88;5062889;28;20021;-79
2023/12/12 04:17:08;;;;;;;49.85;11.73;;;;;;;5.35;100.00;100615.53;5066922;28;20081;-79
2023/12/12 04:19:33;;;;;;;43.63;10.77;;;;;;;5.41;100.00;100609.13;5055514;28;20056;-79
2023/12/12 04:21:59;;;;;;;42.85;10.85;;;;;;;5.43;100.00;100607.25;5047782;28;20040;-79
2023/12/12 04:24:25;;;;;;;46.95;12.32;;;;;;;5.44;100.00;100603.72;5046714;28;20021;-80
2023/12/12 04:26:50;;;;;;;48.55;12.13;;;;;;;5.46;100.00;100607.09;5049241;28;20028;-80
2023/12/12 04:29:16;;;;;;;43.38;11.43;;;;;;;5.48;100.00;100597.41;5049255;28;20025;-79
2023/12/12 04:31:41;;;;;;;43.30;11.48;;;;;;;5.51;100.00;100602.44;5057865;28;20118;-79
2023/12/12 04:34:07;;;;;;;50.50;12.50;;;;;;;5.51;100.00;100604.22;5056646;28;20385;-79
2023/12/12 04:36:33;;;;;;;45.35;11.95;;;;;;;5.55;100.00;100605.72;5068008;28;20032;-79
2023/12/12 04:38:58;;;;;;;43.95;11.75;;;;;;;5.56;100.00;100603.00;5068773;28;20025;-79
2023/12/12 04:41:23;;;;;;;38.80;11.63;;;;;;;5.57;100.00;100596.88;5069546;28;20031;-80
2023/12/12 04:43:49;;;;;;;47.15;12.07;;;;;;;5.59;100.00;100594.16;5063217;28;20020;-80
2023/12/12 04:46:20;;;;;;;45.45;11.60;;;;;;;5.59;100.00;100588.94;5069316;28;20021;-80
2023/12/12 04:48:46;;;;;;;41.78;11.68;;;;;;;5.62;100.00;100581.81;5063708;28;20108;-79
2023/12/12 04:51:11;;;;;;;43.80;12.13;;;;;;;5.63;100.00;100586.09;5050688;28;20096;-79
2023/12/12 04:53:37;;;;;;;42.67;11.38;;;;;;;5.65;100.00;100586.84;5057566;28;20054;-80
2023/12/12 04:56:02;;;;;;;45.13;11.77;;;;;;;5.69;100.00;100581.44;5060996;28;20116;-79
2023/12/12 04:58:28;;;;;;;48.55;12.35;;;;;;;5.69;100.00;100576.22;5063539;28;20103;-79
2023/12/12 05:00:53;;;;;;;52.72;11.93;;;;;;;5.70;100.00;100577.91;5072946;28;20023;-80
2023/12/12 05:03:18;;;;;;;37.40;11.32;;;;;;;5.73;100.00;100577.72;5070702;28;20475;-79
2023/12/12 05:05:44;;;;;;;44.38;11.32;;;;;;;5.74;100.00;100576.81;5070530;28;20017;-79
2023/12/12 05:08:10;;;;;;;44.55;10.95;;;;;;;5.77;100.00;100568.78;5062298;28;20115;-81
2023/12/12 05:10:35;;;;;;;42.35;11.80;;;;;;;5.78;100.00;100562.63;5064039;28;20378;-79
2023/12/12 05:13:01;;;;;;;50.58;12.02;;;;;;;5.78;100.00;100567.88;5059328;28;20077;-79
2023/12/12 05:15:28;;;;;;;41.03;11.30;;;;;;;5.82;100.00;100564.97;5056292;28;20036;-79
2023/12/12 05:17:54;;;;;;;47.53;11.60;;;;;;;5.82;100.00;100566.75;5057195;28;20396;-79
2023/12/12 05:20:19;;;;;;;47.55;12.20;;;;;;;5.85;100.00;100561.34;5049314;28;20025;-79
2023/12/12 05:22:45;;;;;;;39.08;10.20;;;;;;;5.85;100.00;100561.34;5052569;28;20070;-80
2023/12/12 05:25:11;;;;;;;43.28;12.05;;;;;;;5.88;100.00;100553.31;5062844;28;20016;-80
2023/12/12 05:27:36;;;;;;;46.58;10.82;;;;;;;5.87;100.00;100544.66;5062409;28;20043;-80
2023/12/12 05:30:02;;;;;;;41.70;10.93;;;;;;;5.90;100.00;100543.66;5069896;28;20406;-80
2023/12/12 05:32:27;;;;;;;40.13;11.50;;;;;;;5.90;100.00;100547.13;5068443;28;20024;-79
2023/12/12 05:34:52;;;;;;;44.47;11.13;;;;;;;5.94;100.00;100542.53;5052466;28;20056;-79
2023/12/12 05:37:18;;;;;;;48.85;11.73;;;;;;;5.95;100.00;100546.84;5057966;28;20029;-79
2023/12/12 05:39:43;;;;;;;44.17;11.35;;;;;;;5.98;100.00;100546.66;5065862;28;20384;-80
2023/12/12 05:42:09;;;;;;;50.28;12.13;;;;;;;5.98;100.00;100537.06;5071783;28;20067;-80
2023/12/12 05:44:34;;;;;;;42.63;11.75;;;;;;;6.00;100.00;100544.78;5070598;28;20047;-80
2023/12/12 05:46:59;;;;;;;47.03;11.93;;;;;;;6.00;100.00;100544.78;5064305;28;20070;-79
2023/12/12 05:49:25;;;;;;;34.60;10.48;;;;;;;6.03;100.00;100546.41;5072724;28;20024;-79
2023/12/12 05:51:50;;;;;;;41.55;10.50;;;;;;;6.07;100.00;100555.72;5072017;28;20079;-79
2023/12/12 05:54:16;;;;;;;49.85;11.82;;;;;;;6.09;100.00;100549.50;5069660;28;20043;-79
2023/12/12 05:56:43;;;;;;;45.25;11.38;;;;;;;6.10;100.00;100556.38;5071954;28;20511;-79
2023/12/12 05:59:08;;;;;;;46.92;11.02;;;;;;;6.13;100.00;100553.59;5070586;28;20111;-79
2023/12/12 06:01:34;;;;;;;44.47;11.90;;;;;;;6.14;100.00;100557.03;5070493;28;20203;-80
2023/12/12 06:03:59;;;;;;;47.38;10.85;;;;;;;6.16;100.00;100545.56;5070322;28;20025;-79
2023/12/12 06:06:25;;;;;;;47.05;12.10;;;;;;;6.18;100.00;100538.47;5070566;28;20039;-79
2023/12/12 06:08:51;;;;;;;44.03;11.65;;;;;;;6.19;100.00;100544.53;5070284;28;20423;-79
2023/12/12 06:11:17;;;;;;;50.28;11.90;;;;;;;6.20;100.00;100546.22;5068569;28;20456;-81
2023/12/12 06:13:42;;;;;;;43.97;11.18;;;;;;;6.19;100.00;100542.75;5071687;28;20024;-79
2023/12/12 06:16:08;;;;;;;41.05;11.65;;;;;;;6.23;100.00;100535.59;5070613;28;20022;-78
2023/12/12 06:18:33;;;;;;;42.08;11.05;;;;;;;6.24;100.00;100540.72;5069531;28;20120;-80
2023/12/12 06:20:58;;;;;;;35.15;9.90;;;;;;;6.24;100.00;100530.25;5069740;28;20523;-80
2023/12/12 06:23:24;;;;;;;45.53;11.30;;;;;;;6.25;100.00;100529.31;5070859;28;20414;-80
2023/12/12 06:25:49;;;;;;;39.22;10.57;;;;;;;6.25;100.00;100524.09;5070975;28;20056;-80
2023/12/12 06:28:15;;;;;;;41.33;10.35;;;;;;;6.27;100.00;100517.00;5071092;28;20013;-80
2023/12/12 06:30:40;;;;;;;45.78;10.65;;;;;;;6.28;100.00;100515.22;5068412;28;20500;-79
2023/12/12 06:33:05;;;;;;;48.10;10.50;;;;;;;6.27;100.00;100511.78;5070793;28;20024;-79
2023/12/12 06:35:31;;;;;;;43.42;10.40;;;;;;;6.30;100.00;100508.16;5057291;28;20507;-78
2023/12/12 06:37:56;;;;;;;42.67;11.57;;;;;;;6.31;100.00;100498.53;5070122;28;20480;-78
2023/12/12 06:40:22;;;;;;;40.42;10.30;;;;;;;6.32;100.00;100497.59;5070178;28;20024;-79
2023/12/12 06:42:47;;;;;;;39.83;10.00;;;;;;;6.31;100.00;100495.91;5071077;28;20031;-79
2023/12/12 06:45:13;;;;;;;40.33;10.43;;;;;;;6.31;100.00;100491.53;5062907;28;20032;-78
2023/12/12 06:47:39;;;;;;;43.03;10.90;;;;;;;6.32;100.00;100498.44;5068655;28;20029;-79
2023/12/12 06:50:05;;;;;;;53.67;11.30;;;;;;;6.33;100.00;100487.06;5067632;28;20035;-79
2023/12/12 06:52:32;;;;;;;40.65;10.50;;;;;;;6.33;100.00;100479.22;5063770;28;20058;-78
2023/12/12 06:55:00;;;;;;;41.10;10.35;;;;;;;6.33;100.00;100475.75;5071246;28;20036;-79
2023/12/12 06:57:25;;;;;;;38.25;9.90;;;;;;;6.35;100.00;100471.28;5068906;28;20027;-79
2023/12/12 06:59:51;;;;;;;38.35;9.82;;;;;;;6.33;100.00;100470.53;5070193;28;20033;-79
2023/12/12 07:02:17;;;;;;;40.33;10.48;;;;;;;6.33;100.00;100475.75;5068997;28;20346;-79
2023/12/12 07:04:42;;;;;;;40.45;9.88;;;;;;;6.33;100.00;100470.53;5069362;28;20020;-80
2023/12/12 07:07:09;;;;;;;44.88;10.35;;;;;;;6.34;100.00;100469.59;5068906;28;20115;-80
2023/12/12 07:09:34;;;;;;;38.97;9.77;;;;;;;6.34;100.00;100462.59;5069300;28;20450;-80
2023/12/12 07:12:00;;;;;;;38.20;10.02;;;;;;;6.35;100.00;100466.88;5067904;28;20056;-80
2023/12/12 07:14:25;;;;;;;34.72;9.95;;;;;;;6.37;100.00;100466.78;5069122;28;20044;-78
2023/12/12 07:16:50;;;;;;;40.10;9.38;;;;;;;6.38;100.00;100460.63;5067447;28;20047;-78
2023/12/12 07:19:16;;;;;;;39.45;10.32;;;;;;;6.42;100.00;100467.38;5066819;28;20023;-78
2023/12/12 07:21:41;;;;;;;37.72;10.65;;;;;;;6.43;100.00;100469.88;5069197;28;20032;-78
2023/12/12 07:24:07;;;;;;;39.75;10.45;;;;;;;6.44;100.00;100476.78;5068548;28;20077;-77
2023/12/12 07:26:33;;;;;;;37.75;10.50;;;;;;;6.46;100.00;100474.09;5066654;28;20027;-78
2023/12/12 07:28:59;;;;;;;41.72;10.05;;;;;;;6.47;100.00;100470.53;5069462;28;20028;-77
2023/12/12 07:31:24;;;;;;;47.55;10.52;;;;;;;6.48;100.00;100467.81;5068115;28;20053;-77
2023/12/12 07:33:50;;;;;;;41.50;9.63;;;;;;;6.52;100.00;100465.84;5066686;28;20028;-78
2023/12/12 07:36:18;;;;;;;33.78;9.10;;;;;;;6.52;100.00;100464.06;5067753;28;20109;-78
2023/12/12 07:38:44;;;;;;;37.03;9.32;;;;;;;6.55;100.00;100468.25;5068551;28;20055;-78
2023/12/12 07:41:10;;;;;;;39.22;9.90;;;;;;;6.57;100.00;100455.94;5067942;28;20473;-78
2023/12/12 07:43:36;;;;;;;42.55;9.57;;;;;;;6.58;100.00;100448.00;5067486;28;20025;-78
2023/12/12 07:46:01;;;;;;;40.50;9.45;;;;;;;6.59;100.00;100446.22;5067397;28;20028;-77
2023/12/12 07:48:27;;;;;;;33.65;9.23;;;;;;;6.61;100.00;100441.72;5066283;28;20738;-78
2023/12/12 07:50:52;;;;;;;38.60;9.88;;;;;;;6.59;100.00;100434.00;5067437;28;20078;-78
2023/12/12 07:53:17;;;;;;;39.88;9.68;;;;;;;6.57;100.00;100433.25;5066690;28;20025;-78
2023/12/12 07:55:43;;;;;;;43.22;10.43;;;;;;;6.59;100.00;100427.94;5068164;28;20786;-78
2023/12/12 07:58:08;;;;;;;40.30;10.13;;;;;;;6.59;100.00;100430.53;5067174;28;20111;-77
2023/12/12 08:00:34;;;;;;;41.47;9.88;;;;;;;6.59;100.00;100428.75;5068753;28;20542;-77
2023/12/12 08:02:59;;;;;;;34.53;9.25;;;;;;;6.59;100.00;100427.94;5067277;28;20107;-77
2023/12/12 08:05:24;;;;;;;45.83;9.68;;;;;;;6.62;100.00;100422.50;5069285;28;20016;-77
2023/12/12 08:07:50;;;;;;;40.40;9.10;;;;;;;6.64;100.00;100417.16;5067734;28;20036;-78
2023/12/12 08:10:18;;;;;;;39.40;9.38;;;;;;;6.66;100.00;100417.91;5067737;28;20032;-78
2023/12/12 08:12:44;;;;;;;40.13;9.98;;;;;;;6.68;100.00;100409.03;5067949;28;20111;-77
2023/12/12 08:15:09;;;;;;;42.05;10.60;;;;;;;6.74;100.00;100405.19;5067875;28;20120;-78
2023/12/12 08:17:34;;;;;;;42.03;10.02;;;;;;;6.78;100.00;100393.56;5069334;28;20353;-78
2023/12/12 08:20:00;;;;;;;38.38;9.73;;;;;;;6.81;100.00;100394.25;5067391;28;20476;-78
2023/12/12 08:22:25;;;;;;;42.85;9.50;;;;;;;6.87;100.00;100396.44;5068417;28;20035;-78
2023/12/12 08:24:53;;;;;;;35.92;9.32;;;;;;;6.93;100.00;100392.59;5068269;28;20020;-79
2023/12/12 08:27:18;;;;;;;33.88;8.75;;;;;;;6.99;100.00;100388.72;5066845;28;20025;-79
2023/12/12 08:29:45;;;;;;;39.10;9.02;;;;;;;7.06;100.00;100390.00;5066835;28;20032;-79
2023/12/12 08:32:10;;;;;;;36.05;8.88;;;;;;;7.08;100.00;100388.94;5048839;28;20063;-79
2023/12/12 08:34:36;;;;;;;35.15;8.85;;;;;;;7.15;100.00;100394.59;5037325;28;20030;-79
2023/12/12 08:37:01;;;;;;;41.05;9.27;;;;;;;7.19;100.00;100385.59;5036162;28;20022;-79
2023/12/12 08:39:27;;;;;;;34.28;8.98;;;;;;;7.23;100.00;100395.78;5049557;28;20025;-80
2023/12/12 08:41:52;;;;;;;37.08;8.90;;;;;;;7.28;100.00;100397.25;5043664;28;20021;-79
2023/12/12 08:44:18;;;;;;;29.48;8.70;;;;;;;7.29;100.00;100391.91;5047863;28;20060;-79
2023/12/12 08:46:43;;;;;;;29.25;7.90;;;;;;;7.32;100.00;100385.63;5049369;28;20100;-79
2023/12/12 08:49:09;;;;;;;35.00;8.70;;;;;;;7.37;100.00;100389.59;5043693;28;20083;-79
2023/12/12 08:51:34;;;;;;;38.45;8.48;;;;;;;7.40;100.00;100385.94;5032860;28;20833;-79
2023/12/12 08:54:02;;;;;;;31.83;8.85;;;;;;;7.44;100.00;100390.84;5043830;28;20083;-79
2023/12/12 08:56:28;;;;;;;31.95;7.90;;;;;;;7.48;100.00;100376.63;5027514;28;20029;-79
2023/12/12 08:58:54;;;;;;;34.38;8.23;;;;;;;7.57;100.00;100379.53;5029076;28;20140;-79
2023/12/12 09:01:20;;;;;;;34.45;8.10;;;;;;;7.60;100.00;100368.84;5043795;28;20025;-79
2023/12/12 09:03:45;;;;;;;36.40;9.02;;;;;;;7.68;100.00;100371.81;5048661;28;20029;-80
2023/12/12 09:06:11;;;;;;;33.78;8.95;;;;;;;7.73;100.00;100369.69;5048672;28;20479;-79
2023/12/12 09:08:42;;;;;;;29.88;7.72;;;;;;;7.79;100.00;100364.88;5058548;28;20592;-79
2023/12/12 09:11:09;;;;;;;25.48;7.60;;;;;;;7.85;100.00;100353.13;5047895;28;20033;-79
2023/12/12 09:13:34;;;;;;;30.80;7.63;;;;;;;7.91;100.00;100352.69;5048618;28;20048;-79
2023/12/12 09:16:00;;;;;;;26.77;7.50;;;;;;;7.96;100.00;100337.47;5048034;28;20481;-79
2023/12/12 09:18:25;;;;;;;26.33;7.40;;;;;;;7.97;100.00;100330.44;5048596;28;20473;-78
2023/12/12 09:20:51;;;;;;;28.20;7.57;;;;;;;8.05;100.00;100336.00;5049395;28;20041;-78
2023/12/12 09:23:16;;;;;;;28.52;6.68;;;;;;;8.09;100.00;100327.81;5048343;28;20024;-78
2023/12/12 09:25:42;;;;;;;30.92;6.90;;;;;;;8.17;100.00;100330.69;5048017;28;20056;-79
2023/12/12 09:28:07;;;;;;;29.02;7.85;;;;;;;8.18;100.00;100324.50;5049417;28;20035;-80
2023/12/12 09:30:33;;;;;;;25.10;6.47;;;;;;;8.25;100.00;100324.91;5054447;28;20048;-79
2023/12/12 09:32:58;;;;;;;18.83;6.35;;;;;;;8.33;100.00;100321.72;5068484;28;20102;-77
2023/12/12 09:35:24;;;;;;;20.90;6.30;;;;;;;8.44;100.00;100319.19;5069258;28;20023;-79
2023/12/12 09:37:50;;;;;;;23.63;6.88;;;;;;;8.53;100.00;100315.91;5069605;28;20017;-79
2023/12/12 09:40:15;;;;;;;26.50;7.50;;;;;;;8.59;100.00;100320.69;5065483;28;20035;-79
2023/12/12 09:42:41;;;;;;;21.17;6.05;;;;;;;8.77;100.00;100316.66;5071760;28;20115;-80
2023/12/12 09:45:16;;;;;;;25.13;6.25;;;;;;;8.86;100.00;100324.81;5070849;28;20473;-79
2023/12/12 09:47:45;;;;;;;26.90;6.65;;;;;;;8.92;100.00;100317.34;5070498;28;20522;-80
2023/12/12 09:50:11;;;;;;;18.10;5.85;;;;;;;8.95;100.00;100308.38;5070483;28;20012;-80
2023/12/12 09:52:37;;;;;;;19.10;5.22;;;;;;;8.94;100.00;100306.72;5071103;28;20559;-80
2023/12/12 09:55:06;;;;;;;19.50;5.75;;;;;;;8.93;100.00;100305.03;5070533;28;20371;-80
2023/12/12 09:57:32;;;;;;;20.35;5.78;;;;;;;8.92;100.00;100287.63;5071206;28;20039;-81
2023/12/12 09:59:59;;;;;;;17.80;4.72;;;;;;;8.94;100.00;100291.81;5069666;28;20020;-80
2023/12/12 10:02:34;;;;;;;19.65;5.57;;;;;;;8.98;100.00;100282.75;5069122;28;20392;-80
2023/12/12 10:05:01;;;;;;;19.25;5.55;;;;;;;9.00;100.00;100274.75;5071036;28;20470;-80
2023/12/12 10:07:28;;;;;;;18.55;5.07;;;;;;;9.08;100.00;100267.13;5069350;28;20089;-80
2023/12/12 10:09:54;;;;;;;19.23;5.68;;;;;;;9.13;100.00;100262.34;5060625;28;20027;-80
2023/12/12 10:12:19;;;;;;;17.75;4.78;;;;;;;9.17;100.00;100255.06;5062422;28;20020;-79
2023/12/12 10:14:47;;;;;;;18.63;4.90;;;;;;;9.19;100.00;100248.75;5068988;28;20066;-79
2023/12/12 10:17:13;;;;;;;18.75;4.93;;;;;;;9.22;100.00;100253.78;5068989;28;20020;-79
2023/12/12 10:19:38;;;;;;;17.25;4.65;;;;;;;9.28;100.00;100249.84;5066174;28;20028;-80
2023/12/12 10:22:05;;;;;;;18.17;5.03;;;;;;;9.33;100.00;100240.66;5067916;28;20028;-79
2023/12/12 10:24:30;;;;;;;17.38;4.82;;;;;;;9.36;100.00;100240.41;5070824;28;20017;-80
2023/12/12 10:26:56;;;;;;;14.27;4.30;;;;;;;9.42;100.00;100237.31;5071707;28;20023;-80
2023/12/12 10:29:22;;;;;;;15.40;4.45;;;;;;;9.48;100.00;100232.53;5068802;28;20036;-80
2023/12/12 10:31:48;;;;;;;13.55;4.22;;;;;;;9.57;100.00;100237.03;5071017;28;20056;-80
2023/12/12 10:34:13;;;;;;;12.98;4.13;;;;;;;9.60;100.00;100232.38;5070675;28;20029;-80
2023/12/12 10:36:42;;;;;;;15.77;3.97;;;;;;;9.70;100.00;100232.50;5066584;28;20039;-80
2023/12/12 10:39:14;;;;;;;13.05;3.75;;;;;;;9.78;100.00;100227.44;5069663;28;20065;-81
2023/12/12 10:41:40;;;;;;;14.98;4.43;;;;;;;9.83;100.00;100221.81;5071892;28;20036;-80
2023/12/12 10:44:08;;;;;;;13.10;3.92;;;;;;;9.84;100.00;100219.06;5070754;28;20066;-80
2023/12/12 10:46:37;;;;;;;10.02;3.58;;;;;;;9.88;100.00;100230.16;5070494;28;20094;-80
2023/12/12 10:49:02;;;;;;;10.13;3.28;;;;;;;9.92;100.00;100216.66;5056424;28;20032;-79
2023/12/12 10:51:28;;;;;;;10.55;3.15;;;;;;;9.91;100.00;100214.97;5062545;28;20392;-80
2023/12/12 10:53:56;;;;;;;8.95;3.10;;;;;;;9.90;100.00;100213.31;5064647;28;20656;-80
2023/12/12 10:56:21;;;;;;;12.50;3.50;;;;;;;9.92;100.00;100206.13;5078099;28;20033;-80
2023/12/12 10:58:48;;;;;;;11.73;3.35;;;;;;;9.93;100.00;100207.81;5069079;28;20646;-80
2023/12/12 11:01:14;;;;;;;11.48;3.38;;;;;;;9.93;100.00;100197.28;5069651;28;20141;-80
2023/12/12 11:03:43;;;;;;;11.45;3.15;;;;;;;9.94;100.00;100187.63;5069155;28;20020;-80
2023/12/12 11:06:10;;;;;;;10.90;3.13;;;;;;;9.92;100.00;100187.75;5064226;28;20017;-80
2023/12/12 11:08:36;;;;;;;8.45;2.58;;;;;;;9.92;100.00;100185.13;5061272;28;20444;-80